sensor_id;sensor_type;location;lat;lon;timestamp;temperature;humidity
16076;DHT22;8142;48.242;11.644;2023-05-10T00:00:09;14.80;99.90
16076;DHT22;8142;48.242;11.644;2023-05-10T00:02:35;14.80;99.90
16076;DHT22;8142;48.242;11.644;2023-05-10T00:05:01;14.90;99.90
16076;DHT22;8142;48.242;11.644;2023-05-10T00:07:28;14.80;99.90
16076;DHT22;8142;48.242;11.644;2023-05-10T00:09:53;14.80;99.90
16076;DHT22;8142;48.242;11.644;2023-05-10T00:12:19;14.80;99.90
16076;DHT22;8142;48.242;11.644;2023-05-10T00:14:45;14.90;99.90
16076;DHT22;8142;48.242;11.644;2023-05-10T00:17:11;14.90;99.90
16076;DHT22;8142;48.242;11.644;2023-05-10T00:19:37;14.80;99.90
16076;DHT22;8142;48.242;11.644;2023-05-10T00:22:03;14.80;99.90
16076;DHT22;8142;48.242;11.644;2023-05-10T00:24:28;14.90;99.90
16076;DHT22;8142;48.242;11.644;2023-05-10T00:26:54;14.90;99.90
16076;DHT22;8142;48.242;11.644;2023-05-10T00:29:20;14.80;99.90
16076;DHT22;8142;48.242;11.644;2023-05-10T00:31:46;14.80;99.90
16076;DHT22;8142;48.242;11.644;2023-05-10T00:34:12;14.80;99.90
16076;DHT22;8142;48.242;11.644;2023-05-10T00:36:38;14.90;99.90
16076;DHT22;8142;48.242;11.644;2023-05-10T00:39:04;14.80;99.90
16076;DHT22;8142;48.242;11.644;2023-05-10T00:41:32;14.90;99.90
16076;DHT22;8142;48.242;11.644;2023-05-10T00:43:59;14.90;99.90
16076;DHT22;8142;48.242;11.644;2023-05-10T00:46:25;14.80;99.90
16076;DHT22;8142;48.242;11.644;2023-05-10T00:48:52;14.90;99.90
16076;DHT22;8142;48.242;11.644;2023-05-10T00:51:18;14.90;99.90
16076;DHT22;8142;48.242;11.644;2023-05-10T00:53:45;14.90;99.90
16076;DHT22;8142;48.242;11.644;2023-05-10T00:56:12;14.80;99.90
16076;DHT22;8142;48.242;11.644;2023-05-10T00:58:41;14.80;99.90
16076;DHT22;8142;48.242;11.644;2023-05-10T01:01:08;14.80;99.90
16076;DHT22;8142;48.242;11.644;2023-05-10T01:03:35;14.80;99.90
16076;DHT22;8142;48.242;11.644;2023-05-10T01:06:01;14.80;99.90
16076;DHT22;8142;48.242;11.644;2023-05-10T01:08:28;14.80;99.90
16076;DHT22;8142;48.242;11.644;2023-05-10T01:10:54;14.80;99.90
16076;DHT22;8142;48.242;11.644;2023-05-10T01:13:37;14.80;99.90
16076;DHT22;8142;48.242;11.644;2023-05-10T01:16:04;14.80;99.90
16076;DHT22;8142;48.242;11.644;2023-05-10T01:18:35;14.70;99.90
16076;DHT22;8142;48.242;11.644;2023-05-10T01:21:19;14.70;99.90
16076;DHT22;8142;48.242;11.644;2023-05-10T01:29:47;14.70;99.90
16076;DHT22;8142;48.242;11.644;2023-05-10T01:35:26;14.70;99.90
16076;DHT22;8142;48.242;11.644;2023-05-10T01:38:22;14.70;99.90
16076;DHT22;8142;48.242;11.644;2023-05-10T01:44:24;14.70;99.90
16076;DHT22;8142;48.242;11.644;2023-05-10T01:46:37;14.70;99.90
16076;DHT22;8142;48.242;11.644;2023-05-10T01:49:08;14.70;99.90
16076;DHT22;8142;48.242;11.644;2023-05-10T01:51:50;14.70;99.90
16076;DHT22;8142;48.242;11.644;2023-05-10T01:54:19;14.70;99.90
16076;DHT22;8142;48.242;11.644;2023-05-10T01:56:52;14.70;99.90
16076;DHT22;8142;48.242;11.644;2023-05-10T01:59:19;14.70;99.90
16076;DHT22;8142;48.242;11.644;2023-05-10T02:01:46;14.60;99.90
16076;DHT22;8142;48.242;11.644;2023-05-10T02:04:16;14.60;99.90
16076;DHT22;8142;48.242;11.644;2023-05-10T02:06:43;14.60;99.90
16076;DHT22;8142;48.242;11.644;2023-05-10T02:09:10;14.60;99.90
16076;DHT22;8142;48.242;11.644;2023-05-10T02:11:39;14.50;99.90
16076;DHT22;8142;48.242;11.644;2023-05-10T02:14:07;14.60;99.90
16076;DHT22;8142;48.242;11.644;2023-05-10T02:16:38;14.60;99.90
16076;DHT22;8142;48.242;11.644;2023-05-10T02:19:05;14.60;99.90
16076;DHT22;8142;48.242;11.644;2023-05-10T02:21:33;14.60;99.90
16076;DHT22;8142;48.242;11.644;2023-05-10T02:24:00;14.60;99.90
16076;DHT22;8142;48.242;11.644;2023-05-10T02:26:27;14.60;99.90
16076;DHT22;8142;48.242;11.644;2023-05-10T02:28:55;14.60;99.90
16076;DHT22;8142;48.242;11.644;2023-05-10T02:31:23;14.60;99.90
16076;DHT22;8142;48.242;11.644;2023-05-10T02:33:49;14.60;99.90
16076;DHT22;8142;48.242;11.644;2023-05-10T02:36:16;14.50;99.90
16076;DHT22;8142;48.242;11.644;2023-05-10T02:38:43;14.50;99.90
16076;DHT22;8142;48.242;11.644;2023-05-10T02:41:10;14.50;99.90
16076;DHT22;8142;48.242;11.644;2023-05-10T02:43:38;14.60;99.90
16076;DHT22;8142;48.242;11.644;2023-05-10T02:46:05;14.60;99.90
16076;DHT22;8142;48.242;11.644;2023-05-10T02:48:31;14.50;99.90
16076;DHT22;8142;48.242;11.644;2023-05-10T02:51:02;14.50;99.90
16076;DHT22;8142;48.242;11.644;2023-05-10T02:53:38;14.50;99.90
16076;DHT22;8142;48.242;11.644;2023-05-10T02:56:13;14.50;99.90
16076;DHT22;8142;48.242;11.644;2023-05-10T02:58:40;14.50;99.90
16076;DHT22;8142;48.242;11.644;2023-05-10T03:01:06;14.50;99.90
16076;DHT22;8142;48.242;11.644;2023-05-10T03:03:33;14.50;99.90
16076;DHT22;8142;48.242;11.644;2023-05-10T03:05:59;14.40;99.90
16076;DHT22;8142;48.242;11.644;2023-05-10T03:08:25;14.30;99.90
16076;DHT22;8142;48.242;11.644;2023-05-10T03:13:44;13.90;99.90
16076;DHT22;8142;48.242;11.644;2023-05-10T03:16:15;13.80;99.90
16076;DHT22;8142;48.242;11.644;2023-05-10T03:18:45;13.60;99.90
16076;DHT22;8142;48.242;11.644;2023-05-10T03:21:13;13.50;99.90
16076;DHT22;8142;48.242;11.644;2023-05-10T03:24:07;13.40;99.90
16076;DHT22;8142;48.242;11.644;2023-05-10T03:26:35;13.30;99.90
16076;DHT22;8142;48.242;11.644;2023-05-10T03:29:02;13.30;99.90
16076;DHT22;8142;48.242;11.644;2023-05-10T03:31:28;13.10;99.90
16076;DHT22;8142;48.242;11.644;2023-05-10T03:33:54;13.10;99.90
16076;DHT22;8142;48.242;11.644;2023-05-10T03:36:20;13.10;99.90
16076;DHT22;8142;48.242;11.644;2023-05-10T03:38:46;13.10;99.90
16076;DHT22;8142;48.242;11.644;2023-05-10T03:41:12;13.20;99.90
16076;DHT22;8142;48.242;11.644;2023-05-10T03:43:38;13.30;99.90
16076;DHT22;8142;48.242;11.644;2023-05-10T03:46:04;13.30;99.90
16076;DHT22;8142;48.242;11.644;2023-05-10T03:48:32;13.40;99.90
16076;DHT22;8142;48.242;11.644;2023-05-10T03:50:58;13.50;99.90
16076;DHT22;8142;48.242;11.644;2023-05-10T03:53:24;13.60;99.90
16076;DHT22;8142;48.242;11.644;2023-05-10T03:55:50;13.60;99.90
16076;DHT22;8142;48.242;11.644;2023-05-10T03:58:16;13.70;99.90
16076;DHT22;8142;48.242;11.644;2023-05-10T04:00:42;13.70;99.90
16076;DHT22;8142;48.242;11.644;2023-05-10T04:03:11;13.70;99.90
16076;DHT22;8142;48.242;11.644;2023-05-10T04:05:37;13.80;99.90
16076;DHT22;8142;48.242;11.644;2023-05-10T04:08:04;13.80;99.90
16076;DHT22;8142;48.242;11.644;2023-05-10T04:10:31;13.90;99.90
16076;DHT22;8142;48.242;11.644;2023-05-10T04:12:57;13.90;99.90
16076;DHT22;8142;48.242;11.644;2023-05-10T04:15:23;13.90;99.90
16076;DHT22;8142;48.242;11.644;2023-05-10T04:17:49;14.00;99.90
16076;DHT22;8142;48.242;11.644;2023-05-10T04:20:14;14.00;99.90
16076;DHT22;8142;48.242;11.644;2023-05-10T04:22:40;14.00;99.90
16076;DHT22;8142;48.242;11.644;2023-05-10T04:25:06;14.00;99.90
16076;DHT22;8142;48.242;11.644;2023-05-10T04:27:33;14.00;99.90
16076;DHT22;8142;48.242;11.644;2023-05-10T04:29:59;14.10;99.90
16076;DHT22;8142;48.242;11.644;2023-05-10T04:32:24;14.10;99.90
16076;DHT22;8142;48.242;11.644;2023-05-10T04:34:50;14.20;99.90
16076;DHT22;8142;48.242;11.644;2023-05-10T04:37:17;14.00;99.90
16076;DHT22;8142;48.242;11.644;2023-05-10T04:39:43;14.10;99.90
16076;DHT22;8142;48.242;11.644;2023-05-10T04:42:09;14.10;99.90
16076;DHT22;8142;48.242;11.644;2023-05-10T04:44:35;14.10;99.90
16076;DHT22;8142;48.242;11.644;2023-05-10T04:47:01;14.10;99.90
16076;DHT22;8142;48.242;11.644;2023-05-10T04:49:29;14.10;99.90
16076;DHT22;8142;48.242;11.644;2023-05-10T04:51:55;14.20;99.90
16076;DHT22;8142;48.242;11.644;2023-05-10T04:54:21;14.10;99.90
16076;DHT22;8142;48.242;11.644;2023-05-10T04:56:47;14.10;99.90
16076;DHT22;8142;48.242;11.644;2023-05-10T04:59:13;14.10;99.90
16076;DHT22;8142;48.242;11.644;2023-05-10T05:01:39;14.10;99.90
16076;DHT22;8142;48.242;11.644;2023-05-10T05:04:05;14.10;99.90
16076;DHT22;8142;48.242;11.644;2023-05-10T05:06:32;14.10;99.90
16076;DHT22;8142;48.242;11.644;2023-05-10T05:08:58;14.10;99.90
16076;DHT22;8142;48.242;11.644;2023-05-10T05:11:24;14.10;99.90
16076;DHT22;8142;48.242;11.644;2023-05-10T05:13:51;14.10;99.90
16076;DHT22;8142;48.242;11.644;2023-05-10T05:16:17;14.10;99.90
16076;DHT22;8142;48.242;11.644;2023-05-10T05:18:43;14.10;99.90
16076;DHT22;8142;48.242;11.644;2023-05-10T05:21:16;14.10;99.90
16076;DHT22;8142;48.242;11.644;2023-05-10T05:23:42;14.00;99.90
16076;DHT22;8142;48.242;11.644;2023-05-10T05:26:08;14.00;99.90
16076;DHT22;8142;48.242;11.644;2023-05-10T05:28:35;14.00;99.90
16076;DHT22;8142;48.242;11.644;2023-05-10T05:31:06;14.00;99.90
16076;DHT22;8142;48.242;11.644;2023-05-10T05:33:33;14.00;99.90
16076;DHT22;8142;48.242;11.644;2023-05-10T05:36:05;14.00;99.90
16076;DHT22;8142;48.242;11.644;2023-05-10T05:38:31;14.00;99.90
16076;DHT22;8142;48.242;11.644;2023-05-10T05:40:57;14.00;99.90
16076;DHT22;8142;48.242;11.644;2023-05-10T05:43:23;13.90;99.90
16076;DHT22;8142;48.242;11.644;2023-05-10T05:45:49;13.80;99.90
16076;DHT22;8142;48.242;11.644;2023-05-10T05:48:15;13.80;99.90
16076;DHT22;8142;48.242;11.644;2023-05-10T05:50:41;13.70;99.90
16076;DHT22;8142;48.242;11.644;2023-05-10T05:53:07;13.60;99.90
16076;DHT22;8142;48.242;11.644;2023-05-10T05:55:33;13.50;99.90
16076;DHT22;8142;48.242;11.644;2023-05-10T05:57:59;13.40;99.90
16076;DHT22;8142;48.242;11.644;2023-05-10T06:00:25;13.30;99.90
16076;DHT22;8142;48.242;11.644;2023-05-10T06:02:51;13.30;99.90
16076;DHT22;8142;48.242;11.644;2023-05-10T06:05:17;13.30;99.90
16076;DHT22;8142;48.242;11.644;2023-05-10T06:07:43;13.20;99.90
16076;DHT22;8142;48.242;11.644;2023-05-10T06:10:09;13.20;99.90
16076;DHT22;8142;48.242;11.644;2023-05-10T06:12:35;13.40;99.90
16076;DHT22;8142;48.242;11.644;2023-05-10T06:15:02;13.30;99.90
16076;DHT22;8142;48.242;11.644;2023-05-10T06:17:28;13.50;99.90
16076;DHT22;8142;48.242;11.644;2023-05-10T06:19:55;13.40;99.90
16076;DHT22;8142;48.242;11.644;2023-05-10T06:22:21;13.50;99.90
16076;DHT22;8142;48.242;11.644;2023-05-10T06:24:50;13.60;99.90
16076;DHT22;8142;48.242;11.644;2023-05-10T06:27:16;13.60;99.90
16076;DHT22;8142;48.242;11.644;2023-05-10T06:29:42;13.70;99.90
16076;DHT22;8142;48.242;11.644;2023-05-10T06:32:08;13.70;99.90
16076;DHT22;8142;48.242;11.644;2023-05-10T06:34:34;13.70;99.90
16076;DHT22;8142;48.242;11.644;2023-05-10T06:37:00;13.80;99.90
16076;DHT22;8142;48.242;11.644;2023-05-10T06:39:26;13.80;99.90
16076;DHT22;8142;48.242;11.644;2023-05-10T06:41:52;13.90;99.90
16076;DHT22;8142;48.242;11.644;2023-05-10T06:44:18;13.80;99.90
16076;DHT22;8142;48.242;11.644;2023-05-10T06:46:43;13.90;99.90
16076;DHT22;8142;48.242;11.644;2023-05-10T06:49:09;13.90;99.90
16076;DHT22;8142;48.242;11.644;2023-05-10T06:51:35;14.00;99.90
16076;DHT22;8142;48.242;11.644;2023-05-10T06:54:01;14.10;99.90
16076;DHT22;8142;48.242;11.644;2023-05-10T06:56:27;14.10;99.90
16076;DHT22;8142;48.242;11.644;2023-05-10T06:58:53;14.10;99.90
16076;DHT22;8142;48.242;11.644;2023-05-10T07:01:19;14.20;99.90
16076;DHT22;8142;48.242;11.644;2023-05-10T07:03:45;14.20;99.90
16076;DHT22;8142;48.242;11.644;2023-05-10T07:06:10;14.30;99.90
16076;DHT22;8142;48.242;11.644;2023-05-10T07:08:37;14.30;99.90
16076;DHT22;8142;48.242;11.644;2023-05-10T07:11:04;14.40;99.90
16076;DHT22;8142;48.242;11.644;2023-05-10T07:13:31;14.40;99.90
16076;DHT22;8142;48.242;11.644;2023-05-10T07:15:58;14.70;99.90
16076;DHT22;8142;48.242;11.644;2023-05-10T07:18:24;14.50;99.90
16076;DHT22;8142;48.242;11.644;2023-05-10T07:20:50;14.60;99.90
16076;DHT22;8142;48.242;11.644;2023-05-10T07:23:17;14.60;99.90
16076;DHT22;8142;48.242;11.644;2023-05-10T07:25:46;14.70;99.90
16076;DHT22;8142;48.242;11.644;2023-05-10T07:28:13;14.70;99.90
16076;DHT22;8142;48.242;11.644;2023-05-10T07:30:39;14.70;99.90
16076;DHT22;8142;48.242;11.644;2023-05-10T07:33:05;14.70;99.90
16076;DHT22;8142;48.242;11.644;2023-05-10T07:35:31;14.80;99.90
16076;DHT22;8142;48.242;11.644;2023-05-10T07:37:57;14.80;99.90
16076;DHT22;8142;48.242;11.644;2023-05-10T07:40:23;14.80;99.90
16076;DHT22;8142;48.242;11.644;2023-05-10T07:42:49;14.80;99.90
16076;DHT22;8142;48.242;11.644;2023-05-10T07:45:15;14.90;99.90
16076;DHT22;8142;48.242;11.644;2023-05-10T07:47:40;15.00;99.90
16076;DHT22;8142;48.242;11.644;2023-05-10T07:50:07;15.10;99.90
16076;DHT22;8142;48.242;11.644;2023-05-10T07:52:33;15.10;99.90
16076;DHT22;8142;48.242;11.644;2023-05-10T07:54:59;15.10;99.90
16076;DHT22;8142;48.242;11.644;2023-05-10T07:57:24;15.20;99.90
16076;DHT22;8142;48.242;11.644;2023-05-10T07:59:50;15.20;99.90
16076;DHT22;8142;48.242;11.644;2023-05-10T08:02:16;15.30;99.90
16076;DHT22;8142;48.242;11.644;2023-05-10T08:04:42;15.40;99.90
16076;DHT22;8142;48.242;11.644;2023-05-10T08:07:08;15.50;99.90
16076;DHT22;8142;48.242;11.644;2023-05-10T08:09:34;15.60;99.90
16076;DHT22;8142;48.242;11.644;2023-05-10T08:11:59;15.70;99.90
16076;DHT22;8142;48.242;11.644;2023-05-10T08:14:28;15.80;99.90
16076;DHT22;8142;48.242;11.644;2023-05-10T08:16:54;15.90;99.90
16076;DHT22;8142;48.242;11.644;2023-05-10T08:19:20;16.00;99.90
16076;DHT22;8142;48.242;11.644;2023-05-10T08:21:47;16.10;99.90
16076;DHT22;8142;48.242;11.644;2023-05-10T08:24:13;16.20;99.90
16076;DHT22;8142;48.242;11.644;2023-05-10T08:26:39;16.30;99.90
16076;DHT22;8142;48.242;11.644;2023-05-10T08:29:05;16.30;99.90
16076;DHT22;8142;48.242;11.644;2023-05-10T08:31:31;16.40;99.90
16076;DHT22;8142;48.242;11.644;2023-05-10T08:33:57;16.40;99.90
16076;DHT22;8142;48.242;11.644;2023-05-10T08:36:23;16.40;99.90
16076;DHT22;8142;48.242;11.644;2023-05-10T08:38:53;16.40;99.90
16076;DHT22;8142;48.242;11.644;2023-05-10T08:41:20;16.30;99.90
16076;DHT22;8142;48.242;11.644;2023-05-10T08:43:47;16.20;99.90
16076;DHT22;8142;48.242;11.644;2023-05-10T08:46:17;16.20;99.90
16076;DHT22;8142;48.242;11.644;2023-05-10T08:48:45;16.20;99.90
16076;DHT22;8142;48.242;11.644;2023-05-10T08:51:18;16.10;99.90
16076;DHT22;8142;48.242;11.644;2023-05-10T08:53:45;16.10;99.90
16076;DHT22;8142;48.242;11.644;2023-05-10T08:56:11;16.10;99.90
16076;DHT22;8142;48.242;11.644;2023-05-10T08:58:38;16.20;99.90
16076;DHT22;8142;48.242;11.644;2023-05-10T09:01:05;16.30;99.90
16076;DHT22;8142;48.242;11.644;2023-05-10T09:03:31;16.30;99.90
16076;DHT22;8142;48.242;11.644;2023-05-10T09:05:58;16.40;99.90
16076;DHT22;8142;48.242;11.644;2023-05-10T09:08:24;16.50;99.90
16076;DHT22;8142;48.242;11.644;2023-05-10T09:10:54;16.60;99.90
16076;DHT22;8142;48.242;11.644;2023-05-10T09:13:22;16.60;99.90
16076;DHT22;8142;48.242;11.644;2023-05-10T09:15:48;16.60;99.90
16076;DHT22;8142;48.242;11.644;2023-05-10T09:18:14;16.60;99.90
16076;DHT22;8142;48.242;11.644;2023-05-10T09:20:40;16.60;99.90
16076;DHT22;8142;48.242;11.644;2023-05-10T09:23:07;16.70;99.90
16076;DHT22;8142;48.242;11.644;2023-05-10T09:25:33;16.70;99.90
16076;DHT22;8142;48.242;11.644;2023-05-10T09:27:59;16.70;99.90
16076;DHT22;8142;48.242;11.644;2023-05-10T09:30:27;16.70;99.90
16076;DHT22;8142;48.242;11.644;2023-05-10T09:32:55;16.70;99.90
16076;DHT22;8142;48.242;11.644;2023-05-10T09:35:24;16.70;99.90
16076;DHT22;8142;48.242;11.644;2023-05-10T09:37:51;16.60;99.90
16076;DHT22;8142;48.242;11.644;2023-05-10T09:40:27;16.60;99.90
16076;DHT22;8142;48.242;11.644;2023-05-10T09:43:01;16.50;99.90
16076;DHT22;8142;48.242;11.644;2023-05-10T09:45:30;16.50;99.90
16076;DHT22;8142;48.242;11.644;2023-05-10T09:47:56;16.40;99.90
16076;DHT22;8142;48.242;11.644;2023-05-10T09:50:23;16.40;99.90
16076;DHT22;8142;48.242;11.644;2023-05-10T09:53:00;16.40;99.90
16076;DHT22;8142;48.242;11.644;2023-05-10T09:58:04;16.30;99.90
16076;DHT22;8142;48.242;11.644;2023-05-10T10:00:36;16.30;99.90
16076;DHT22;8142;48.242;11.644;2023-05-10T10:03:03;16.30;99.90
16076;DHT22;8142;48.242;11.644;2023-05-10T10:05:33;16.30;99.90
16076;DHT22;8142;48.242;11.644;2023-05-10T10:08:02;16.30;99.90
16076;DHT22;8142;48.242;11.644;2023-05-10T10:10:28;16.30;99.90
16076;DHT22;8142;48.242;11.644;2023-05-10T10:12:55;16.30;99.90
16076;DHT22;8142;48.242;11.644;2023-05-10T10:15:22;16.30;99.90
16076;DHT22;8142;48.242;11.644;2023-05-10T10:17:49;16.20;99.90
16076;DHT22;8142;48.242;11.644;2023-05-10T10:20:16;16.20;99.90
16076;DHT22;8142;48.242;11.644;2023-05-10T10:22:42;16.20;99.90
16076;DHT22;8142;48.242;11.644;2023-05-10T10:25:14;16.20;99.90
16076;DHT22;8142;48.242;11.644;2023-05-10T10:30:16;16.30;99.90
16076;DHT22;8142;48.242;11.644;2023-05-10T10:35:34;16.30;99.90
16076;DHT22;8142;48.242;11.644;2023-05-10T10:38:00;16.40;99.90
16076;DHT22;8142;48.242;11.644;2023-05-10T10:40:31;16.50;99.90
16076;DHT22;8142;48.242;11.644;2023-05-10T10:42:58;16.50;99.90
16076;DHT22;8142;48.242;11.644;2023-05-10T10:45:43;16.60;99.90
16076;DHT22;8142;48.242;11.644;2023-05-10T10:48:22;16.60;99.90
16076;DHT22;8142;48.242;11.644;2023-05-10T10:50:56;16.60;99.90
16076;DHT22;8142;48.242;11.644;2023-05-10T10:53:22;16.40;99.90
16076;DHT22;8142;48.242;11.644;2023-05-10T10:55:48;16.50;99.90
16076;DHT22;8142;48.242;11.644;2023-05-10T10:58:33;16.50;99.90
16076;DHT22;8142;48.242;11.644;2023-05-10T11:01:17;16.50;99.90
16076;DHT22;8142;48.242;11.644;2023-05-10T11:06:38;16.40;99.90
16076;DHT22;8142;48.242;11.644;2023-05-10T11:09:07;16.40;99.90
16076;DHT22;8142;48.242;11.644;2023-05-10T11:11:37;16.30;99.90
16076;DHT22;8142;48.242;11.644;2023-05-10T11:14:13;16.30;99.90
16076;DHT22;8142;48.242;11.644;2023-05-10T11:16:44;16.30;99.90
16076;DHT22;8142;48.242;11.644;2023-05-10T11:19:17;16.40;99.90
16076;DHT22;8142;48.242;11.644;2023-05-10T11:24:20;16.40;99.90
16076;DHT22;8142;48.242;11.644;2023-05-10T11:26:49;16.50;99.90
16076;DHT22;8142;48.242;11.644;2023-05-10T11:29:16;16.60;99.90
16076;DHT22;8142;48.242;11.644;2023-05-10T11:31:45;16.60;99.90
16076;DHT22;8142;48.242;11.644;2023-05-10T11:34:26;16.70;99.90
16076;DHT22;8142;48.242;11.644;2023-05-10T11:36:53;16.70;99.90
16076;DHT22;8142;48.242;11.644;2023-05-10T11:39:20;16.60;99.90
16076;DHT22;8142;48.242;11.644;2023-05-10T11:41:48;16.60;99.90
16076;DHT22;8142;48.242;11.644;2023-05-10T11:44:14;16.60;99.90
16076;DHT22;8142;48.242;11.644;2023-05-10T11:46:41;16.50;99.90
16076;DHT22;8142;48.242;11.644;2023-05-10T11:49:07;16.50;99.90
16076;DHT22;8142;48.242;11.644;2023-05-10T11:51:34;16.40;99.90
16076;DHT22;8142;48.242;11.644;2023-05-10T11:54:09;16.40;99.90
16076;DHT22;8142;48.242;11.644;2023-05-10T11:56:37;16.40;99.90
16076;DHT22;8142;48.242;11.644;2023-05-10T11:59:03;16.40;99.90
16076;DHT22;8142;48.242;11.644;2023-05-10T12:01:30;16.40;99.90
16076;DHT22;8142;48.242;11.644;2023-05-10T12:03:57;16.30;99.90
16076;DHT22;8142;48.242;11.644;2023-05-10T12:06:27;16.30;99.90
16076;DHT22;8142;48.242;11.644;2023-05-10T12:08:54;16.30;99.90
16076;DHT22;8142;48.242;11.644;2023-05-10T12:11:24;16.20;99.90
16076;DHT22;8142;48.242;11.644;2023-05-10T12:13:50;16.20;99.90
16076;DHT22;8142;48.242;11.644;2023-05-10T12:16:22;16.20;99.90
16076;DHT22;8142;48.242;11.644;2023-05-10T12:18:48;16.20;99.90
16076;DHT22;8142;48.242;11.644;2023-05-10T12:21:16;16.20;99.90
16076;DHT22;8142;48.242;11.644;2023-05-10T12:23:58;16.20;99.90
16076;DHT22;8142;48.242;11.644;2023-05-10T12:26:25;16.10;99.90
16076;DHT22;8142;48.242;11.644;2023-05-10T12:28:54;16.10;99.90
16076;DHT22;8142;48.242;11.644;2023-05-10T12:31:20;16.00;99.90
16076;DHT22;8142;48.242;11.644;2023-05-10T12:33:46;16.00;99.90
16076;DHT22;8142;48.242;11.644;2023-05-10T12:36:15;16.00;99.90
16076;DHT22;8142;48.242;11.644;2023-05-10T12:38:43;16.00;99.90
16076;DHT22;8142;48.242;11.644;2023-05-10T12:41:10;15.90;99.90
16076;DHT22;8142;48.242;11.644;2023-05-10T12:43:38;15.80;99.90
16076;DHT22;8142;48.242;11.644;2023-05-10T12:46:16;15.80;99.90
16076;DHT22;8142;48.242;11.644;2023-05-10T12:48:43;15.70;99.90
16076;DHT22;8142;48.242;11.644;2023-05-10T12:51:10;15.60;99.90
16076;DHT22;8142;48.242;11.644;2023-05-10T12:53:39;15.50;99.90
16076;DHT22;8142;48.242;11.644;2023-05-10T12:56:05;15.40;99.90
16076;DHT22;8142;48.242;11.644;2023-05-10T12:58:31;15.40;99.90
16076;DHT22;8142;48.242;11.644;2023-05-10T13:00:58;15.30;99.90
16076;DHT22;8142;48.242;11.644;2023-05-10T13:03:24;15.30;99.90
16076;DHT22;8142;48.242;11.644;2023-05-10T13:05:50;15.20;99.90
16076;DHT22;8142;48.242;11.644;2023-05-10T13:08:16;15.20;99.90
16076;DHT22;8142;48.242;11.644;2023-05-10T13:10:42;15.10;99.90
16076;DHT22;8142;48.242;11.644;2023-05-10T13:13:08;15.10;99.90
16076;DHT22;8142;48.242;11.644;2023-05-10T13:15:34;15.10;99.90
16076;DHT22;8142;48.242;11.644;2023-05-10T13:18:00;15.10;99.90
16076;DHT22;8142;48.242;11.644;2023-05-10T13:20:26;15.10;99.90
16076;DHT22;8142;48.242;11.644;2023-05-10T13:22:53;15.10;99.90
16076;DHT22;8142;48.242;11.644;2023-05-10T13:25:19;15.10;99.90
16076;DHT22;8142;48.242;11.644;2023-05-10T13:27:47;15.10;99.90
16076;DHT22;8142;48.242;11.644;2023-05-10T13:30:13;15.10;99.90
16076;DHT22;8142;48.242;11.644;2023-05-10T13:32:39;15.10;99.90
16076;DHT22;8142;48.242;11.644;2023-05-10T13:35:05;15.20;99.90
16076;DHT22;8142;48.242;11.644;2023-05-10T13:37:32;15.20;99.90
16076;DHT22;8142;48.242;11.644;2023-05-10T13:40:01;15.20;99.90
16076;DHT22;8142;48.242;11.644;2023-05-10T13:42:27;15.20;99.90
16076;DHT22;8142;48.242;11.644;2023-05-10T13:44:53;15.20;99.90
16076;DHT22;8142;48.242;11.644;2023-05-10T13:47:19;15.20;99.90
16076;DHT22;8142;48.242;11.644;2023-05-10T13:49:47;15.20;99.90
16076;DHT22;8142;48.242;11.644;2023-05-10T13:52:13;15.30;99.90
16076;DHT22;8142;48.242;11.644;2023-05-10T13:54:39;15.30;99.90
16076;DHT22;8142;48.242;11.644;2023-05-10T13:57:05;15.30;99.90
16076;DHT22;8142;48.242;11.644;2023-05-10T13:59:32;15.20;99.90
16076;DHT22;8142;48.242;11.644;2023-05-10T14:01:58;15.30;99.90
16076;DHT22;8142;48.242;11.644;2023-05-10T14:04:24;15.40;99.90
16076;DHT22;8142;48.242;11.644;2023-05-10T14:06:50;15.40;99.90
16076;DHT22;8142;48.242;11.644;2023-05-10T14:09:16;15.40;99.90
16076;DHT22;8142;48.242;11.644;2023-05-10T14:11:42;15.40;99.90
16076;DHT22;8142;48.242;11.644;2023-05-10T14:14:09;15.40;99.90
16076;DHT22;8142;48.242;11.644;2023-05-10T14:16:35;15.40;99.90
16076;DHT22;8142;48.242;11.644;2023-05-10T14:19:01;15.40;99.90
16076;DHT22;8142;48.242;11.644;2023-05-10T14:21:27;15.40;99.90
16076;DHT22;8142;48.242;11.644;2023-05-10T14:23:55;15.40;99.90
16076;DHT22;8142;48.242;11.644;2023-05-10T14:26:21;15.50;99.90
16076;DHT22;8142;48.242;11.644;2023-05-10T14:28:47;15.50;99.90
16076;DHT22;8142;48.242;11.644;2023-05-10T14:31:13;15.30;99.90
16076;DHT22;8142;48.242;11.644;2023-05-10T14:33:40;15.40;99.90
16076;DHT22;8142;48.242;11.644;2023-05-10T14:36:06;15.40;99.90
16076;DHT22;8142;48.242;11.644;2023-05-10T14:38:32;15.40;99.90
16076;DHT22;8142;48.242;11.644;2023-05-10T14:40:58;15.40;99.90
16076;DHT22;8142;48.242;11.644;2023-05-10T14:43:24;15.40;99.90
16076;DHT22;8142;48.242;11.644;2023-05-10T14:45:51;15.40;99.90
16076;DHT22;8142;48.242;11.644;2023-05-10T14:48:17;15.30;99.90
16076;DHT22;8142;48.242;11.644;2023-05-10T14:50:44;15.30;99.90
16076;DHT22;8142;48.242;11.644;2023-05-10T14:53:11;15.30;99.90
16076;DHT22;8142;48.242;11.644;2023-05-10T14:55:37;15.20;99.90
16076;DHT22;8142;48.242;11.644;2023-05-10T14:58:04;15.20;99.90
16076;DHT22;8142;48.242;11.644;2023-05-10T15:00:30;15.10;99.90
16076;DHT22;8142;48.242;11.644;2023-05-10T15:02:56;15.10;99.90
16076;DHT22;8142;48.242;11.644;2023-05-10T15:05:23;15.00;99.90
16076;DHT22;8142;48.242;11.644;2023-05-10T15:07:49;14.90;99.90
16076;DHT22;8142;48.242;11.644;2023-05-10T15:10:14;14.70;99.90
16076;DHT22;8142;48.242;11.644;2023-05-10T15:12:40;14.60;99.90
16076;DHT22;8142;48.242;11.644;2023-05-10T15:15:07;14.40;99.90
16076;DHT22;8142;48.242;11.644;2023-05-10T15:17:33;14.30;99.90
16076;DHT22;8142;48.242;11.644;2023-05-10T15:20:00;14.10;99.90
16076;DHT22;8142;48.242;11.644;2023-05-10T15:22:29;14.00;99.90
16076;DHT22;8142;48.242;11.644;2023-05-10T15:24:55;13.90;99.90
16076;DHT22;8142;48.242;11.644;2023-05-10T15:27:21;13.90;99.90
16076;DHT22;8142;48.242;11.644;2023-05-10T15:29:47;13.70;99.90
16076;DHT22;8142;48.242;11.644;2023-05-10T15:32:13;13.60;99.90
16076;DHT22;8142;48.242;11.644;2023-05-10T15:34:39;13.60;99.90
16076;DHT22;8142;48.242;11.644;2023-05-10T15:37:05;13.60;99.90
16076;DHT22;8142;48.242;11.644;2023-05-10T15:39:30;13.60;99.90
16076;DHT22;8142;48.242;11.644;2023-05-10T15:41:56;13.50;99.90
16076;DHT22;8142;48.242;11.644;2023-05-10T15:44:22;13.60;99.90
16076;DHT22;8142;48.242;11.644;2023-05-10T15:46:48;13.60;99.90
16076;DHT22;8142;48.242;11.644;2023-05-10T15:49:14;13.60;99.90
16076;DHT22;8142;48.242;11.644;2023-05-10T15:51:40;13.60;99.90
16076;DHT22;8142;48.242;11.644;2023-05-10T15:54:06;13.60;99.90
16076;DHT22;8142;48.242;11.644;2023-05-10T15:56:35;13.80;99.90
16076;DHT22;8142;48.242;11.644;2023-05-10T15:59:01;14.00;99.90